Time;durP1;ratioP1;P1;durP2;ratioP2;P2;SDS_P1;SDS_P2;PMS_P1;PMS_P2;Temp;Humidity;BMP_temperature;BMP_pressure;BME280_temperature;BME280_humidity;BME280_pressure;Samples;Min_cycle;Max_cycle;Signal;HPM_P1;HPM_P2
2023/06/13 00:00:10;;;;;;;;;0.00;0.00;;;;;-146.67;100.00;57155.34;5024896;28;9826;-88
2023/06/13 00:02:37;;;;;;;;;0.00;0.00;;;;;-146.67;100.00;57155.34;5043024;28;8799;-88
2023/06/13 00:05:05;;;;;;;;;0.00;0.00;;;;;-146.67;100.00;57155.34;5021959;28;8774;-88
2023/06/13 00:07:37;;;;;;;;;0.67;0.67;;;;;-146.67;100.00;57155.34;5022128;28;8786;-88
2023/06/13 00:10:05;;;;;;;;;3.00;1.00;;;;;-146.67;100.00;57155.34;5004983;28;10121;-88
2023/06/13 00:12:32;;;;;;;;;0.00;0.00;;;;;-146.67;100.00;57155.34;5005357;28;8814;-89
2023/06/13 00:15:01;;;;;;;;;0.00;0.00;;;;;-146.67;100.00;57155.34;5005361;28;8828;-88
2023/06/13 00:17:26;;;;;;;;;0.00;0.00;;;;;-146.67;100.00;57155.34;5005947;28;8785;-88
2023/06/13 00:19:54;;;;;;;;;0.00;0.00;;;;;-146.67;100.00;57155.34;5005490;28;9961;-88
2023/06/13 00:22:21;;;;;;;;;0.00;0.00;;;;;-146.67;100.00;57155.34;5005935;28;8786;-89
2023/06/13 00:24:46;;;;;;;;;0.00;0.00;;;;;-146.67;100.00;57155.34;5039216;28;8813;-88
2023/06/13 00:27:11;;;;;;;;;0.00;0.00;;;;;-146.67;100.00;57155.34;5042786;28;8802;-89
2023/06/13 00:29:37;;;;;;;;;1.00;0.00;;;;;-146.67;100.00;57155.34;5042585;28;8871;-88
2023/06/13 00:32:02;;;;;;;;;0.00;0.00;;;;;-146.67;100.00;57155.34;5025214;28;8934;-88
2023/06/13 00:34:28;;;;;;;;;0.00;0.00;;;;;-146.67;100.00;57155.34;5025179;28;8817;-88
2023/06/13 00:36:55;;;;;;;;;0.00;0.00;;;;;-146.67;100.00;57155.34;5025092;28;8791;-88
2023/06/13 00:39:21;;;;;;;;;0.00;0.00;;;;;-146.67;100.00;57155.34;5042117;28;8774;-88
2023/06/13 00:41:46;;;;;;;;;0.00;0.00;;;;;-146.67;100.00;57155.34;5042445;28;8838;-87
2023/06/13 00:44:12;;;;;;;;;0.00;0.00;;;;;-146.67;100.00;57155.34;5024533;28;8929;-88
2023/06/13 00:46:39;;;;;;;;;0.00;0.00;;;;;-146.67;100.00;57155.34;5026932;28;9598;-89
2023/06/13 00:49:06;;;;;;;;;0.00;0.00;;;;;-146.67;100.00;57155.34;5046049;28;8791;-89
2023/06/13 00:51:40;;;;;;;;;0.00;0.00;;;;;-146.67;100.00;57155.34;5028454;28;9747;-89
2023/06/13 00:54:10;;;;;;;;;0.00;0.00;;;;;-146.67;100.00;57155.34;5044553;28;8831;-88
2023/06/13 00:56:36;;;;;;;;;0.00;0.00;;;;;-146.67;100.00;57155.34;5035529;28;8786;-88
2023/06/13 00:59:03;;;;;;;;;0.00;0.00;;;;;-146.67;100.00;57155.34;5044424;28;10579;-88
2023/06/13 01:01:30;;;;;;;;;1.00;1.00;;;;;-146.67;39.10;73386.03;5023153;28;45375;-88
2023/06/13 01:03:57;;;;;;;;;0.00;0.00;;;;;-146.67;100.00;57155.34;5015114;28;61741;-88
2023/06/13 01:06:28;;;;;;;;;0.00;0.00;;;;;-146.67;100.00;57155.34;5044535;28;8754;-88
2023/06/13 01:08:58;;;;;;;;;0.00;0.00;;;;;-146.67;100.00;57155.34;5045197;28;8816;-89
2023/06/13 01:11:28;;;;;;;;;0.00;0.00;;;;;-146.67;100.00;57155.34;5044428;28;8959;-89
2023/06/13 01:14:48;;;;;;;;;0.00;0.00;;;;;-146.67;100.00;57155.34;5045222;28;8770;-89
2023/06/13 01:17:24;;;;;;;;;0.00;0.00;;;;;-146.67;100.00;57155.34;5023854;28;9712;-89
2023/06/13 01:19:58;;;;;;;;;0.00;0.00;;;;;-146.67;100.00;57155.34;5021644;28;10168;-89
2023/06/13 01:22:32;;;;;;;;;0.67;0.00;;;;;-146.67;100.00;57155.34;5003058;28;9809;-88
2023/06/13 01:25:40;;;;;;;;;0.00;0.00;;;;;-146.67;100.00;57155.34;5002062;28;8827;-88
2023/06/13 01:28:06;;;;;;;;;0.00;0.00;;;;;-146.67;100.00;57155.34;4988272;28;9279;-88
2023/06/13 01:30:34;;;;;;;;;0.00;0.00;;;;;-146.67;100.00;57155.34;4991538;28;10191;-88
2023/06/13 01:33:02;;;;;;;;;0.00;0.00;;;;;-146.67;100.00;57155.34;4986525;28;8757;-89
2023/06/13 01:35:28;;;;;;;;;0.00;0.00;;;;;-146.67;100.00;57155.34;5003311;28;9793;-88
2023/06/13 01:37:54;;;;;;;;;0.00;0.00;;;;;-146.67;100.00;57155.34;5002087;28;8794;-89
2023/06/13 01:40:20;;;;;;;;;0.00;0.00;;;;;-146.67;100.00;57155.34;5003093;28;8815;-87
2023/06/13 01:42:45;;;;;;;;;0.00;0.00;;;;;-146.67;100.00;57155.34;4987090;28;8812;-88
2023/06/13 01:45:12;;;;;;;;;0.00;0.00;;;;;-146.67;100.00;57155.34;4986770;28;8847;-88
2023/06/13 01:47:45;;;;;;;;;0.00;0.00;;;;;-146.67;100.00;57155.34;4987209;28;8776;-89
2023/06/13 01:50:34;;;;;;;;;0.00;0.00;;;;;-146.67;100.00;57155.34;4992173;28;10252;-88
2023/06/13 01:53:13;;;;;;;;;0.00;0.00;;;;;-146.67;100.00;57155.34;5015837;28;8771;-89
2023/06/13 01:55:51;;;;;;;;;0.00;0.00;;;;;-146.67;100.00;57155.34;5007188;28;8768;-89
2023/06/13 01:58:19;;;;;;;;;0.00;0.00;;;;;-146.67;100.00;57155.34;5024420;28;8766;-88
2023/06/13 02:00:47;;;;;;;;;0.00;0.00;;;;;-146.67;100.00;57155.34;5039644;28;8951;-88
2023/06/13 02:03:13;;;;;;;;;0.00;0.00;;;;;-146.67;100.00;57155.34;5027023;28;8795;-88
2023/06/13 02:05:38;;;;;;;;;0.00;0.00;;;;;-146.67;100.00;57155.34;5026948;28;8830;-88
2023/06/13 02:08:04;;;;;;;;;0.00;0.00;;;;;-146.67;100.00;57155.34;5026782;28;8911;-87
2023/06/13 02:10:29;;;;;;;;;0.00;0.00;;;;;-146.67;100.00;57155.34;5026553;28;9931;-87
2023/06/13 02:12:54;;;;;;;;;0.00;0.00;;;;;-146.67;100.00;57155.34;5044670;28;8876;-89
2023/06/13 02:15:20;;;;;;;;;0.00;0.00;;;;;-146.67;100.00;57155.34;5044384;28;8810;-88
2023/06/13 02:17:46;;;;;;;;;0.00;0.00;;;;;-146.67;100.00;57155.34;5027304;28;8806;-88
2023/06/13 02:20:12;;;;;;;;;0.00;0.00;;;;;-146.67;100.00;57155.34;5044481;28;9561;-88
2023/06/13 02:22:37;;;;;;;;;0.00;0.00;;;;;-146.67;100.00;57155.34;5044915;28;8790;-88
2023/06/13 02:25:04;;;;;;;;;0.00;0.00;;;;;-146.67;100.00;57155.34;5026550;28;8814;-88
2023/06/13 02:27:30;;;;;;;;;0.00;0.00;;;;;-146.67;100.00;57155.34;5026821;28;8728;-89
2023/06/13 02:29:55;;;;;;;;;0.00;0.00;;;;;-146.67;100.00;57155.34;5026796;28;9950;-89
2023/06/13 02:32:23;;;;;;;;;0.00;0.00;;;;;-146.67;100.00;57155.34;5026284;28;8815;-88
2023/06/13 02:34:49;;;;;;;;;0.00;0.00;;;;;-146.67;100.00;57155.34;5044480;28;8786;-88
2023/06/13 02:37:15;;;;;;;;;0.00;0.00;;;;;-146.67;100.00;57155.34;5044465;28;8774;-88
2023/06/13 02:39:40;;;;;;;;;0.00;0.00;;;;;-146.67;100.00;57155.34;5038451;28;9947;-88
2023/06/13 02:42:06;;;;;;;;;0.00;0.00;;;;;-146.67;100.00;57155.34;5026365;28;8865;-88
2023/06/13 02:44:31;;;;;;;;;0.00;0.00;;;;;-146.67;100.00;57155.34;5044238;28;8782;-88
2023/06/13 02:46:57;;;;;;;;;0.00;0.00;;;;;-146.67;100.00;57155.34;5043094;28;8806;-88
2023/06/13 02:49:22;;;;;;;;;0.00;0.00;;;;;-146.67;100.00;57155.34;5044294;28;8803;-89
2023/06/13 02:51:47;;;;;;;;;0.00;0.00;;;;;-146.67;100.00;57155.34;5026509;28;8810;-89
2023/06/13 02:54:13;;;;;;;;;0.00;0.00;;;;;-146.67;100.00;57155.34;5026170;28;8803;-88
2023/06/13 02:56:38;;;;;;;;;0.00;0.00;;;;;-146.67;100.00;57155.34;5026437;28;9634;-89
2023/06/13 02:59:04;;;;;;;;;0.00;0.00;;;;;-146.67;100.00;57155.34;5042422;28;9861;-89
2023/06/13 03:01:29;;;;;;;;;0.00;0.00;;;;;-146.67;100.00;57155.34;5044005;28;8744;-88
2023/06/13 03:03:55;;;;;;;;;0.00;0.00;;;;;-146.67;100.00;57155.34;5044249;28;8799;-88
2023/06/13 03:06:20;;;;;;;;;0.00;0.00;;;;;-146.67;100.00;57155.34;5043866;28;8807;-88
2023/06/13 03:08:48;;;;;;;;;0.00;0.00;;;;;-146.67;100.00;57155.34;5042446;28;8845;-88
2023/06/13 03:11:13;;;;;;;;;0.00;0.00;;;;;-146.67;100.00;57155.34;5026237;28;8756;-88
2023/06/13 03:13:39;;;;;;;;;0.00;0.00;;;;;-146.67;100.00;57155.34;5043598;28;9071;-88
2023/06/13 03:16:06;;;;;;;;;0.00;0.00;;;;;-146.67;100.00;57155.34;5026057;28;8839;-88
2023/06/13 03:18:32;;;;;;;;;0.00;0.00;;;;;-146.67;100.00;57155.34;5026040;28;10295;-89
2023/06/13 03:20:57;;;;;;;;;0.00;0.00;;;;;-146.67;100.00;57155.34;5026233;28;8807;-89
2023/06/13 03:23:23;;;;;;;;;0.00;0.00;;;;;-146.67;100.00;57155.34;5037968;28;8848;-88
2023/06/13 03:25:49;;;;;;;;;0.00;0.00;;;;;-146.67;100.00;57155.34;5042140;28;8825;-89
2023/06/13 03:28:14;;;;;;;;;0.00;0.00;;;;;-146.67;100.00;57155.34;5042007;28;10367;-88
2023/06/13 03:30:40;;;;;;;;;0.00;0.00;;;;;-146.67;100.00;57155.34;5042380;28;8873;-88
2023/06/13 03:33:05;;;;;;;;;0.00;0.00;;;;;-146.67;100.00;57155.34;5043860;28;8820;-88
2023/06/13 03:35:31;;;;;;;;;25.50;24.25;;;;;-146.67;100.00;57155.34;5041955;28;8813;-88
2023/06/13 03:37:56;;;;;;;;;0.00;0.00;;;;;-146.67;100.00;57155.34;5041485;28;10110;-88
2023/06/13 03:40:22;;;;;;;;;0.00;0.00;;;;;-146.67;100.00;57155.34;5042176;28;8813;-89
2023/06/13 03:42:47;;;;;;;;;0.00;0.00;;;;;-146.67;100.00;57155.34;5041768;28;8843;-88
2023/06/13 03:45:15;;;;;;;;;0.00;0.00;;;;;-146.67;100.00;57155.34;5042260;28;8810;-88
2023/06/13 03:47:40;;;;;;;;;0.00;0.00;;;;;-146.67;100.00;57155.34;5042233;28;10261;-88
2023/06/13 03:50:06;;;;;;;;;0.00;0.00;;;;;-146.67;100.00;57155.34;5041879;28;8790;-88
2023/06/13 03:52:32;;;;;;;;;0.00;0.00;;;;;-146.67;100.00;57155.34;5042886;28;8782;-88
2023/06/13 03:54:57;;;;;;;;;1.00;0.00;;;;;-146.67;100.00;57155.34;5043419;28;8795;-88
2023/06/13 03:57:22;;;;;;;;;0.33;0.00;;;;;-146.67;100.00;57155.34;5041597;28;10201;-88
2023/06/13 03:59:48;;;;;;;;;0.00;0.00;;;;;-146.67;100.00;57155.34;5038972;28;8847;-88
2023/06/13 04:02:13;;;;;;;;;0.00;0.00;;;;;-146.67;100.00;57155.34;5043330;28;8844;-88
2023/06/13 04:04:42;;;;;;;;;0.00;0.00;;;;;-146.67;100.00;57155.34;5042839;28;8941;-89
2023/06/13 04:07:08;;;;;;;;;0.00;0.00;;;;;-146.67;100.00;57155.34;5025190;28;10127;-88
2023/06/13 04:09:34;;;;;;;;;27.50;24.00;;;;;-146.67;100.00;57155.34;5041112;28;8743;-88
2023/06/13 04:12:00;;;;;;;;;0.00;0.00;;;;;-146.67;100.00;57155.34;5041505;28;10463;-88
2023/06/13 04:14:26;;;;;;;;;0.00;0.00;;;;;-146.67;100.00;57155.34;5043244;28;9216;-88
2023/06/13 04:16:52;;;;;;;;;18.33;16.67;;;;;-146.67;100.00;57155.34;5041971;28;9932;-88
2023/06/13 04:19:18;;;;;;;;;34.00;28.75;;;;;-146.67;100.00;57155.34;5041626;28;8809;-88
2023/06/13 04:21:47;;;;;;;;;0.00;0.00;;;;;-146.67;100.00;57155.34;5044750;28;10520;-88
2023/06/13 04:24:14;;;;;;;;;0.00;0.00;;;;;-146.67;100.00;57155.34;5045104;28;9659;-88
2023/06/13 04:26:41;;;;;;;;;0.00;0.00;;;;;-146.67;100.00;57155.34;5044656;28;10323;-88
2023/06/13 04:29:09;;;;;;;;;0.00;0.00;;;;;-146.67;100.00;57155.34;5044630;28;8830;-87
2023/06/13 04:31:36;;;;;;;;;0.00;0.00;;;;;-146.67;100.00;57155.34;5046268;28;8923;-87
2023/06/13 04:34:05;;;;;;;;;0.00;0.00;;;;;-146.67;100.00;57155.34;5044458;28;8849;-87
2023/06/13 04:36:35;;;;;;;;;0.67;0.67;;;;;-146.67;100.00;57155.34;5045883;28;8771;-88
2023/06/13 04:39:05;;;;;;;;;0.00;0.00;;;;;-146.67;100.00;57155.34;5045627;28;8782;-87
2023/06/13 04:41:35;;;;;;;;;27.25;25.00;;;;;-146.67;100.00;57155.34;5031862;28;8762;-87
2023/06/13 04:44:10;;;;;;;;;0.00;0.00;;;;;-146.67;100.00;57155.34;5044315;28;10519;-87
2023/06/13 04:46:38;;;;;;;;;12.33;11.33;;;;;-146.67;100.00;57155.34;5045994;28;8828;-88
2023/06/13 04:49:04;;;;;;;;;0.00;0.00;;;;;-146.67;100.00;57155.34;5045459;28;8722;-87
2023/06/13 04:51:32;;;;;;;;;0.67;0.67;;;;;-146.67;100.00;57155.34;5046180;28;8734;-88
2023/06/13 04:53:58;;;;;;;;;0.00;0.00;;;;;-146.67;100.00;57155.34;5044499;28;8750;-87
2023/06/13 04:56:25;;;;;;;;;0.00;0.00;;;;;-146.67;100.00;57155.34;5045909;28;8746;-87
2023/06/13 04:58:52;;;;;;;;;0.00;0.00;;;;;-146.67;100.00;57155.34;5044128;28;8763;-87
2023/06/13 05:01:20;;;;;;;;;0.00;0.00;;;;;-146.67;100.00;57155.34;5021257;28;8777;-87
2023/06/13 05:03:47;;;;;;;;;3.00;0.00;;;;;-146.67;100.00;57155.34;5025693;28;8770;-87
2023/06/13 05:06:13;;;;;;;;;0.00;0.00;;;;;-146.67;100.00;57155.34;5025595;28;8798;-88
2023/06/13 05:08:38;;;;;;;;;0.00;0.00;;;;;-146.67;100.00;57155.34;5025560;28;8923;-87
2023/06/13 05:11:04;;;;;;;;;0.00;0.00;;;;;-146.67;100.00;57155.34;5041114;28;8801;-86
2023/06/13 05:13:29;;;;;;;;;0.00;0.00;;;;;-146.67;100.00;57155.34;5043674;28;8802;-88
2023/06/13 05:15:55;;;;;;;;;15.33;12.00;;;;;-146.67;100.00;57155.34;5043532;28;10049;-87
2023/06/13 05:18:22;;;;;;;;;23.00;19.00;;;;;-146.67;100.00;57155.34;5028049;28;8917;-87
2023/06/13 05:20:48;;;;;;;;;0.00;0.00;;;;;-146.67;100.00;57155.34;5036637;28;8868;-86
2023/06/13 05:23:13;;;;;;;;;0.67;0.67;;;;;-146.67;100.00;57155.34;5044788;28;8798;-86
2023/06/13 05:25:39;;;;;;;;;15.00;13.67;;;;;-146.67;100.00;57155.34;5045576;28;8831;-85
2023/06/13 05:28:04;;;;;;;;;25.00;25.00;;;;;-146.67;100.00;57155.34;5043785;28;8803;-85
2023/06/13 05:30:30;;;;;;;;;0.00;0.00;;;;;-146.67;100.00;57155.34;5045362;28;8873;-86
2023/06/13 05:32:56;;;;;;;;;0.00;0.00;;;;;-146.67;100.00;57155.34;5026013;28;8815;-86
2023/06/13 05:35:22;;;;;;;;;0.00;0.00;;;;;-146.67;100.00;57155.34;5019482;28;10048;-86
2023/06/13 05:37:48;;;;;;;;;16.00;13.67;;;;;-146.67;100.00;57155.34;5024873;28;9864;-86
2023/06/13 05:40:14;;;;;;;;;0.00;0.00;;;;;-146.67;100.00;57155.34;5026350;28;8894;-84
2023/06/13 05:42:39;;;;;;;;;0.00;0.00;;;;;-146.67;100.00;57155.34;5043036;28;8811;-88
2023/06/13 05:45:07;;;;;;;;;0.00;0.00;;;;;-146.67;100.00;57155.34;5026640;28;9944;-88
2023/06/13 05:47:36;;;;;;;;;0.00;0.00;;;;;-146.67;100.00;57155.34;5044727;28;8815;-87
2023/06/13 05:50:03;;;;;;;;;0.00;0.00;;;;;-146.67;100.00;57155.34;5045378;28;8860;-87
2023/06/13 05:52:29;;;;;;;;;0.00;0.00;;;;;-146.67;100.00;57155.34;5025771;28;8888;-87
2023/06/13 05:54:54;;;;;;;;;0.00;0.00;;;;;-146.67;100.00;57155.34;5036579;28;8862;-85
2023/06/13 05:57:20;;;;;;;;;0.00;0.00;;;;;-146.67;100.00;57155.34;5025489;28;8813;-86
2023/06/13 05:59:45;;;;;;;;;0.00;0.00;;;;;-146.67;100.00;57155.34;5025926;28;8909;-84
2023/06/13 06:02:11;;;;;;;;;0.00;0.00;;;;;-146.67;100.00;57155.34;5043877;28;8794;-86
2023/06/13 06:04:37;;;;;;;;;1.00;1.00;;;;;-146.67;100.00;57155.34;5043830;28;8817;-86
2023/06/13 06:07:04;;;;;;;;;0.00;0.00;;;;;-146.67;100.00;57155.34;5044157;28;8826;-83
2023/06/13 06:09:31;;;;;;;;;0.00;0.00;;;;;-146.67;100.00;57155.34;5042011;28;8782;-86
2023/06/13 06:11:57;;;;;;;;;0.00;0.00;;;;;-146.67;100.00;57155.34;5044302;28;8743;-86
2023/06/13 06:14:23;;;;;;;;;0.00;0.00;;;;;-146.67;100.00;57155.34;5043551;28;8739;-88
2023/06/13 06:16:50;;;;;;;;;0.00;0.00;;;;;-146.67;100.00;57155.34;5043606;28;8834;-89
2023/06/13 06:19:16;;;;;;;;;0.00;0.00;;;;;-146.67;100.00;57155.34;5026190;28;8842;-85
2023/06/13 06:21:41;;;;;;;;;0.00;0.00;;;;;-146.67;100.00;57155.34;5043719;28;8795;-86
2023/06/13 06:24:07;;;;;;;;;0.00;0.00;;;;;-146.67;100.00;57155.34;5026081;28;9841;-85
2023/06/13 06:26:33;;;;;;;;;0.00;0.00;;;;;-146.67;100.00;57155.34;5025702;28;8838;-85
2023/06/13 06:28:58;;;;;;;;;0.00;0.00;;;;;-146.67;100.00;57155.34;5025935;28;8814;-86
2023/06/13 06:31:24;;;;;;;;;0.00;0.00;;;;;-146.67;100.00;57155.34;5043982;28;8984;-85
2023/06/13 06:33:49;;;;;;;;;0.00;0.00;;;;;-146.67;100.00;57155.34;5026141;28;10418;-85
2023/06/13 06:36:15;;;;;;;;;0.00;0.00;;;;;-146.67;100.00;57155.34;5044021;28;8823;-86
2023/06/13 06:38:42;;;;;;;;;0.00;0.00;;;;;-146.67;100.00;57155.34;5042556;28;8823;-83
2023/06/13 06:41:08;;;;;;;;;0.00;0.00;;;;;-146.67;100.00;57155.34;5025942;28;8813;-84
2023/06/13 06:43:33;;;;;;;;;0.00;0.00;;;;;-146.67;100.00;57155.34;5024376;28;9851;-85
2023/06/13 06:45:58;;;;;;;;;1.00;1.00;;;;;-146.67;100.00;57155.34;5043172;28;8862;-86
2023/06/13 06:48:24;;;;;;;;;0.00;0.00;;;;;-146.67;100.00;57155.34;5025947;28;8823;-84
2023/06/13 06:50:49;;;;;;;;;0.00;0.00;;;;;-146.67;100.00;57155.34;5042901;28;8782;-82
2023/06/13 06:53:15;;;;;;;;;0.00;0.00;;;;;-146.67;100.00;57155.34;5021735;28;9957;-85
2023/06/13 06:55:40;;;;;;;;;0.00;0.00;;;;;-146.67;100.00;57155.34;5019847;28;8813;-86
2023/06/13 06:58:05;;;;;;;;;0.00;0.00;;;;;-146.67;100.00;57155.34;5042049;28;8806;-85
2023/06/13 07:00:31;;;;;;;;;0.00;0.00;;;;;-146.67;100.00;57155.34;5043275;28;8892;-85
2023/06/13 07:02:56;;;;;;;;;0.00;0.00;;;;;-146.67;100.00;57155.34;5043035;28;8892;-85
2023/06/13 07:05:22;;;;;;;;;0.00;0.00;;;;;-146.67;100.00;57155.34;5043291;28;8822;-84
2023/06/13 07:07:47;;;;;;;;;0.00;0.00;;;;;-146.67;100.00;57155.34;5024778;28;8815;-85
2023/06/13 07:10:13;;;;;;;;;0.00;0.00;;;;;-146.67;100.00;57155.34;5024923;28;8810;-86
2023/06/13 07:12:39;;;;;;;;;0.00;0.00;;;;;-146.67;100.00;57155.34;5042970;28;8803;-86
2023/06/13 07:15:05;;;;;;;;;0.00;0.00;;;;;-146.67;100.00;57155.34;5039636;28;8852;-85
2023/06/13 07:17:30;;;;;;;;;0.00;0.00;;;;;-146.67;100.00;57155.34;5025290;28;8842;-83
2023/06/13 07:19:56;;;;;;;;;0.00;0.00;;;;;-146.67;100.00;57155.34;5026062;28;8993;-84
2023/06/13 07:22:22;;;;;;;;;0.00;0.00;;;;;-146.67;100.00;57155.34;5005688;28;9840;-85
2023/06/13 07:24:47;;;;;;;;;0.00;0.00;;;;;-146.67;100.00;57155.34;5051378;28;8808;-82
2023/06/13 07:27:12;;;;;;;;;0.00;0.00;;;;;-146.67;100.00;57155.34;5043855;28;8828;-85
2023/06/13 07:29:38;;;;;;;;;0.00;0.00;;;;;-146.67;100.00;57155.34;5024987;28;8840;-82
2023/06/13 07:32:04;;;;;;;;;0.00;0.00;;;;;-146.67;100.00;57155.34;5042666;28;8830;-81
2023/06/13 07:34:30;;;;;;;;;0.00;0.00;;;;;-146.67;100.00;57155.34;5032244;28;8727;-82
2023/06/13 07:36:55;;;;;;;;;0.00;0.00;;;;;-146.67;100.00;57155.34;5042951;28;8828;-81
2023/06/13 07:39:20;;;;;;;;;0.00;0.00;;;;;-146.67;100.00;57155.34;5042483;28;8820;-81
2023/06/13 07:41:48;;;;;;;;;0.00;0.00;;;;;-146.67;100.00;57155.34;5041301;28;9829;-85
2023/06/13 07:44:14;;;;;;;;;0.00;0.00;;;;;-146.67;100.00;57155.34;5042250;28;8758;-86
2023/06/13 07:46:40;;;;;;;;;0.00;0.00;;;;;-146.67;100.00;57155.34;5042704;28;8895;-83
2023/06/13 07:49:05;;;;;;;;;0.00;0.00;;;;;-146.67;100.00;57155.34;5026897;28;8828;-82
2023/06/13 07:51:31;;;;;;;;;0.00;0.00;;;;;-146.67;100.00;57155.34;5023073;28;10088;-82
2023/06/13 07:53:56;;;;;;;;;0.00;0.00;;;;;-146.67;100.00;57155.34;5021131;28;8809;-82
2023/06/13 07:56:22;;;;;;;;;0.00;0.00;;;;;-146.67;100.00;57155.34;5036453;28;8815;-84
2023/06/13 07:58:47;;;;;;;;;0.00;0.00;;;;;-146.67;100.00;57155.34;5023849;28;8821;-84
2023/06/13 08:01:13;;;;;;;;;0.00;0.00;;;;;-146.67;100.00;57155.34;5023638;28;9858;-83
2023/06/13 08:03:38;;;;;;;;;0.00;0.00;;;;;-146.67;100.00;57155.34;5042308;28;8807;-84
2023/06/13 08:06:03;;;;;;;;;0.00;0.00;;;;;-146.67;100.00;57155.34;5042022;28;8975;-84
2023/06/13 08:08:29;;;;;;;;;0.00;0.00;;;;;-146.67;100.00;57155.34;5023705;28;8845;-84
2023/06/13 08:10:56;;;;;;;;;0.00;0.00;;;;;-146.67;100.00;57155.34;5024109;28;10833;-84
2023/06/13 08:13:22;;;;;;;;;0.00;0.00;;;;;-146.67;100.00;57155.34;5041059;28;8770;-84
2023/06/13 08:15:48;;;;;;;;;0.00;0.00;;;;;-146.67;100.00;57155.34;5040603;28;8838;-83
2023/06/13 08:18:14;;;;;;;;;0.00;0.00;;;;;-146.67;100.00;57155.34;5041937;28;8812;-84
2023/06/13 08:20:40;;;;;;;;;0.00;0.00;;;;;-146.67;100.00;57155.34;5040727;28;9910;-83
2023/06/13 08:23:06;;;;;;;;;0.00;0.00;;;;;-146.67;100.00;57155.34;5042158;28;8803;-82
2023/06/13 08:25:31;;;;;;;;;0.00;0.00;;;;;-146.67;100.00;57155.34;5023768;28;8917;-83
2023/06/13 08:27:57;;;;;;;;;0.00;0.00;;;;;-146.67;100.00;57155.34;5028577;28;8841;-83
2023/06/13 08:30:23;;;;;;;;;0.00;0.00;;;;;-146.67;100.00;57155.34;5024059;28;10108;-83
2023/06/13 08:32:52;;;;;;;;;0.00;0.00;;;;;-146.67;100.00;57155.34;5023869;28;8826;-85
2023/06/13 08:35:20;;;;;;;;;0.00;0.00;;;;;-146.67;100.00;57155.34;5023627;28;8771;-86
2023/06/13 08:37:46;;;;;;;;;0.00;0.00;;;;;-146.67;100.00;57155.34;5023153;28;8795;-83
2023/06/13 08:40:12;;;;;;;;;0.00;0.00;;;;;-146.67;100.00;57155.34;5040973;28;8836;-85
2023/06/13 08:42:38;;;;;;;;;0.00;0.00;;;;;-146.67;100.00;57155.34;5040991;28;8751;-84
2023/06/13 08:45:04;;;;;;;;;0.00;0.00;;;;;-146.67;100.00;57155.34;5041755;28;8786;-83
2023/06/13 08:47:29;;;;;;;;;0.00;0.00;;;;;-146.67;100.00;57155.34;5040331;28;8775;-83
2023/06/13 08:49:55;;;;;;;;;0.00;0.00;;;;;-146.67;100.00;57155.34;5009539;28;10027;-84
2023/06/13 08:52:21;;;;;;;;;0.00;0.00;;;;;-146.67;100.00;57155.34;5004376;28;9580;-85
2023/06/13 08:54:54;;;;;;;;;0.00;0.00;;;;;-146.67;100.00;57155.34;5005472;28;8833;-83
2023/06/13 08:57:23;;;;;;;;;0.00;0.00;;;;;-146.67;100.00;57155.34;5023177;28;8767;-83
2023/06/13 08:59:52;;;;;;;;;0.00;0.00;;;;;-146.67;100.00;57155.34;5022804;28;9961;-83
2023/06/13 09:02:23;;;;;;;;;0.00;0.00;;;;;-146.67;100.00;57155.34;5023455;28;8770;-83
2023/06/13 09:04:50;;;;;;;;;0.00;0.00;;;;;-146.67;100.00;57155.34;5040906;28;8813;-83
2023/06/13 09:07:16;;;;;;;;;0.00;0.00;;;;;-146.67;100.00;57155.34;5024853;28;8803;-88
2023/06/13 09:09:42;;;;;;;;;0.00;0.00;;;;;-146.67;100.00;57155.34;5025697;28;10389;-82
2023/06/13 09:12:11;;;;;;;;;0.00;0.00;;;;;-146.67;100.00;57155.34;5044735;28;8779;-83
2023/06/13 09:14:37;;;;;;;;;0.00;0.00;;;;;-146.67;100.00;57155.34;5043103;28;8771;-83
2023/06/13 09:17:03;;;;;;;;;0.00;0.00;;;;;-146.67;100.00;57155.34;5026945;28;8769;-86
2023/06/13 09:19:28;;;;;;;;;0.00;0.00;;;;;-146.67;100.00;57155.34;5026565;28;9991;-85
2023/06/13 09:21:54;;;;;;;;;0.00;0.00;;;;;-146.67;100.00;57155.34;5044162;28;8853;-83
2023/06/13 09:24:20;;;;;;;;;0.00;0.00;;;;;-146.67;100.00;57155.34;5027267;28;8803;-82
2023/06/13 09:26:45;;;;;;;;;0.00;0.00;;;;;-146.67;100.00;57155.34;5025704;28;9618;-85
2023/06/13 09:29:14;;;;;;;;;0.00;0.00;;;;;-146.67;100.00;57155.34;5044366;28;9530;-85
2023/06/13 09:31:39;;;;;;;;;0.00;0.00;;;;;-146.67;100.00;57155.34;5026330;28;9670;-83
2023/06/13 09:34:08;;;;;;;;;0.00;0.00;;;;;-146.67;100.00;57155.34;5044336;28;8922;-85
2023/06/13 09:36:37;;;;;;;;;0.00;0.00;;;;;-146.67;100.00;57155.34;5044256;28;8775;-85
2023/06/13 09:39:07;;;;;;;;;0.00;0.00;;;;;-146.67;100.00;57155.34;5025624;28;10148;-85
2023/06/13 09:41:33;;;;;;;;;0.00;0.00;;;;;-146.67;100.00;57155.34;5022608;28;8761;-84
2023/06/13 09:44:06;;;;;;;;;0.00;0.00;;;;;-146.67;100.00;57155.34;5039214;28;10080;-84
2023/06/13 09:46:36;;;;;;;;;0.00;0.00;;;;;-146.67;100.00;57155.34;5039438;28;8804;-84
2023/06/13 09:49:02;;;;;;;;;0.00;0.00;;;;;-146.67;100.00;57155.34;5039455;28;9946;-86
2023/06/13 09:51:29;;;;;;;;;0.00;0.00;;;;;-146.67;100.00;57155.34;5023939;28;8730;-83
2023/06/13 09:53:55;;;;;;;;;0.00;0.00;;;;;-146.67;100.00;57155.34;5022136;28;8768;-85
2023/06/13 09:56:22;;;;;;;;;0.00;0.00;;;;;-146.67;100.00;57155.34;5027551;28;8811;-85
2023/06/13 09:58:48;;;;;;;;;0.00;0.00;;;;;-146.67;100.00;57155.34;5022635;28;10371;-81
2023/06/13 10:01:15;;;;;;;;;0.00;0.00;;;;;-146.67;100.00;57155.34;5023456;28;9556;-82
2023/06/13 10:03:42;;;;;;;;;0.00;0.00;;;;;-146.67;100.00;57155.34;5022660;28;8793;-82
2023/06/13 10:06:09;;;;;;;;;16.00;12.33;;;;;-146.67;100.00;57155.34;5023316;28;8840;-81
2023/06/13 10:08:34;;;;;;;;;0.00;0.00;;;;;-146.67;100.00;57155.34;5022646;28;10013;-84
2023/06/13 10:11:07;;;;;;;;;0.00;0.00;;;;;-146.67;100.00;57155.34;5023644;28;8816;-82
2023/06/13 10:13:39;;;;;;;;;0.00;0.00;;;;;-146.67;100.00;57155.34;5022722;28;8813;-84
2023/06/13 10:16:06;;;;;;;;;0.00;0.00;;;;;-146.67;100.00;57155.34;5022422;28;8748;-85
2023/06/13 10:18:37;;;;;;;;;0.00;0.00;;;;;-146.67;100.00;57155.34;5023009;28;8756;-83
2023/06/13 10:21:02;;;;;;;;;0.00;0.00;;;;;-146.67;100.00;57155.34;5022866;28;8788;-80
2023/06/13 10:23:31;;;;;;;;;0.00;0.00;;;;;-146.67;100.00;57155.34;5021669;28;8831;-84
2023/06/13 10:26:06;;;;;;;;;0.00;0.00;;;;;-146.67;100.00;57155.34;5037964;28;9061;-83
2023/06/13 10:29:05;;;;;;;;;0.00;0.00;;;;;-146.67;100.00;57155.34;5033890;28;10115;-83
2023/06/13 10:31:33;;;;;;;;;0.00;0.00;;;;;-146.67;100.00;57155.34;5021939;28;8796;-84
2023/06/13 10:34:14;;;;;;;;;0.00;0.00;;;;;-146.67;100.00;57155.34;5020172;28;8864;-84
2023/06/13 10:37:05;;;;;;;;;1.00;0.00;;;;;-146.67;100.00;57155.34;5020873;28;8801;-87
2023/06/13 10:40:09;;;;;;;;;0.00;0.00;;;;;-146.67;100.00;57155.34;5019939;28;10397;-86
2023/06/13 10:42:40;;;;;;;;;0.00;0.00;;;;;-146.67;100.00;57155.34;4991779;28;8807;-86
2023/06/13 10:45:11;;;;;;;;;0.00;0.00;;;;;-146.67;100.00;57155.34;5003496;28;8743;-88
2023/06/13 10:47:39;;;;;;;;;0.00;0.00;;;;;-146.67;100.00;57155.34;5003894;28;8813;-84
2023/06/13 10:50:06;;;;;;;;;0.00;0.00;;;;;-146.67;100.00;57155.34;5001256;28;8971;-86
2023/06/13 10:52:31;;;;;;;;;0.00;0.00;;;;;-146.67;26.35;72424.13;4982114;28;61861;-86
2023/06/13 10:55:06;;;;;;;;;0.00;0.00;;;;;-146.67;26.86;72420.16;4963261;28;61886;-82
2023/06/13 10:57:49;;;;;;;;;0.00;0.00;;;;;-146.67;100.00;57155.34;4973117;28;62123;-87
2023/06/13 11:00:33;;;;;;;;;0.00;0.00;;;;;-146.67;26.29;72384.22;4989266;28;61314;-83
2023/06/13 11:03:16;;;;;;;;;0.00;0.00;;;;;-146.67;26.30;72372.25;4962912;28;61831;-87
2023/06/13 11:05:44;;;;;;;;;0.00;0.00;;;;;-146.67;26.06;72372.25;4959543;28;61957;-87
2023/06/13 11:08:24;;;;;;;;;0.00;0.00;;;;;-146.67;25.96;72342.34;4968186;28;61048;-87
2023/06/13 11:10:55;;;;;;;;;0.00;0.00;;;;;-146.67;100.00;57155.34;4953412;28;63844;-88
2023/06/13 11:13:32;;;;;;;;;0.00;0.00;;;;;-146.67;25.30;72332.34;4948973;28;61962;-89
2023/06/13 11:16:17;;;;;;;;;0.00;0.00;;;;;-146.67;100.00;57155.34;4952181;28;61891;-88